Darby, Montana
Current Conditions -  °F | °C
As of 12:53 PM on Monday 22 Dec 2014 (Local Time) from KMSO Reporting Station
Overcast Overcast  
Wind Chill: 32°   Ceiling: 6000
Heat Index: 39°   Visibility: 10mi
Dew Point: 26°   Wind: 12mph
Humidity: 60%   Direction: 320°NW
Pressure: 30.06"   Gusts: NA
Location:  46.02°N, 114.18°W
Report Text: KMSO 221953Z 32010KT 10SM BKN060 OVC075 04/M03 A3006 RMK AO2 RAB32E41 SLP198 P0000 T00391033
Loading
Personal Weather Stations






























Interactive Weather Map New forecast layout! Learn more

10-Day Weather Forecast

Advertisements
Track Severe Weather on mobile